createdAt,value
2018-05-29T00:01:34.983Z,22.40
2018-05-29T00:04:02.423Z,22.40
2018-05-29T00:06:29.865Z,22.40
2018-05-29T00:08:57.386Z,22.40
2018-05-29T00:11:24.930Z,22.40
2018-05-29T00:13:52.398Z,22.40
2018-05-29T00:16:19.861Z,22.30
2018-05-29T00:18:47.340Z,22.30
2018-05-29T00:21:14.875Z,22.30
2018-05-29T00:23:42.416Z,22.40
2018-05-29T00:26:09.903Z,22.30
2018-05-29T00:28:37.366Z,22.30
2018-05-29T00:31:04.803Z,22.30
2018-05-29T00:33:32.365Z,22.30
2018-05-29T00:35:59.789Z,22.20
2018-05-29T00:38:28.046Z,22.20
2018-05-29T00:40:55.493Z,22.20
2018-05-29T00:43:22.954Z,22.20
2018-05-29T00:45:50.410Z,22.10
2018-05-29T00:48:17.874Z,22.10
2018-05-29T00:50:45.322Z,22.00
2018-05-29T00:53:12.770Z,22.00
2018-05-29T00:55:40.214Z,22.00
2018-05-29T00:58:08.441Z,21.90
2018-05-29T01:00:36.687Z,21.90
2018-05-29T01:03:04.153Z,21.90
2018-05-29T01:05:31.597Z,21.90
2018-05-29T01:07:59.810Z,21.80
2018-05-29T01:10:27.254Z,21.80
2018-05-29T01:12:54.710Z,21.80
2018-05-29T01:15:22.146Z,21.80
2018-05-29T01:17:50.353Z,21.70
2018-05-29T01:20:17.796Z,21.70
2018-05-29T01:22:46.009Z,21.70
2018-05-29T01:25:13.442Z,21.70
2018-05-29T01:27:40.893Z,21.60
2018-05-29T01:30:09.114Z,21.60
2018-05-29T01:32:36.566Z,21.60
2018-05-29T01:35:04.014Z,21.60
2018-05-29T01:37:31.461Z,21.60
2018-05-29T01:39:58.897Z,21.60
2018-05-29T01:42:26.350Z,21.60
2018-05-29T01:44:53.891Z,21.50
2018-05-29T01:47:21.339Z,21.50
2018-05-29T01:49:48.783Z,21.50
2018-05-29T01:52:16.226Z,21.50
2018-05-29T01:54:44.447Z,21.40
2018-05-29T01:57:11.890Z,21.40
2018-05-29T01:59:39.381Z,21.40
2018-05-29T02:02:06.822Z,21.40
2018-05-29T02:04:34.337Z,21.30
2018-05-29T02:07:01.837Z,21.20
2018-05-29T02:09:29.282Z,21.20
2018-05-29T02:11:56.740Z,21.20
2018-05-29T02:14:24.967Z,21.10
2018-05-29T02:16:52.462Z,21.10
2018-05-29T02:19:20.687Z,21.10
2018-05-29T02:21:48.167Z,21.10
2018-05-29T02:24:15.622Z,21.10
2018-05-29T02:26:43.090Z,21.10
2018-05-29T02:29:10.544Z,21.00
2018-05-29T02:31:38.014Z,21.00
2018-05-29T02:34:05.486Z,21.00
2018-05-29T02:36:32.923Z,20.90
2018-05-29T02:39:00.399Z,20.90
2018-05-29T02:41:27.850Z,20.90
2018-05-29T02:43:55.319Z,20.90
2018-05-29T02:46:22.758Z,20.90
2018-05-29T02:48:50.206Z,20.90
2018-05-29T02:51:17.647Z,20.90
2018-05-29T02:53:45.866Z,20.80
2018-05-29T02:56:13.305Z,20.80
2018-05-29T02:58:40.758Z,20.80
2018-05-29T03:01:08.962Z,20.90
2018-05-29T03:03:36.418Z,20.90
2018-05-29T03:06:03.981Z,20.90
2018-05-29T03:08:31.467Z,20.90
2018-05-29T03:10:58.907Z,20.90
2018-05-29T03:13:26.350Z,20.90
2018-05-29T03:15:53.792Z,20.90
2018-05-29T03:18:22.027Z,20.90
2018-05-29T03:20:49.467Z,20.90
2018-05-29T03:23:16.954Z,20.90
2018-05-29T03:25:44.428Z,20.80
2018-05-29T03:28:11.867Z,20.80
2018-05-29T03:30:39.315Z,20.80
2018-05-29T03:33:06.801Z,20.80
2018-05-29T03:35:34.341Z,20.80
2018-05-29T03:38:01.778Z,20.80
2018-05-29T03:40:30.014Z,20.70
2018-05-29T03:42:57.644Z,20.70
2018-05-29T03:45:25.104Z,20.70
2018-05-29T03:47:52.554Z,20.60
2018-05-29T03:50:20.781Z,20.60
2018-05-29T03:52:48.222Z,20.60
2018-05-29T03:55:15.691Z,20.50
2018-05-29T03:57:43.163Z,20.50
2018-05-29T04:00:10.606Z,20.50
2018-05-29T04:02:38.062Z,20.50
2018-05-29T04:05:05.534Z,20.50
2018-05-29T04:07:32.977Z,20.50
2018-05-29T04:10:00.460Z,20.50
2018-05-29T04:12:27.878Z,20.50
2018-05-29T04:14:56.096Z,20.50
2018-05-29T04:17:23.562Z,20.50
2018-05-29T04:19:51.030Z,20.50
2018-05-29T04:22:18.502Z,20.50
2018-05-29T04:24:45.942Z,20.50
2018-05-29T04:27:13.434Z,20.50
2018-05-29T04:29:40.982Z,20.50
2018-05-29T04:32:08.373Z,20.50
2018-05-29T04:34:36.586Z,20.50
2018-05-29T04:37:04.035Z,20.50
2018-05-29T04:39:32.248Z,20.60
2018-05-29T04:41:59.686Z,20.60
2018-05-29T04:44:27.138Z,20.60
2018-05-29T04:46:54.578Z,20.60
2018-05-29T04:49:22.798Z,20.70
2018-05-29T04:51:50.234Z,20.70
2018-05-29T04:54:17.690Z,20.70
2018-05-29T04:56:45.942Z,20.70
2018-05-29T04:59:13.386Z,20.70
2018-05-29T05:01:40.830Z,20.80
2018-05-29T05:04:08.291Z,20.80
2018-05-29T05:06:35.731Z,20.90
2018-05-29T05:09:03.235Z,20.90
2018-05-29T05:11:31.382Z,21.00
2018-05-29T05:13:58.826Z,21.00
2018-05-29T05:16:26.282Z,21.10
2018-05-29T05:18:53.723Z,21.10
2018-05-29T05:21:21.941Z,21.20
2018-05-29T05:23:49.383Z,21.10
2018-05-29T05:26:16.858Z,21.20
2018-05-29T05:28:44.299Z,21.20
2018-05-29T05:31:12.530Z,21.30
2018-05-29T05:33:39.975Z,21.30
2018-05-29T05:36:07.431Z,21.30
2018-05-29T05:38:34.907Z,21.40
2018-05-29T05:41:02.350Z,21.40
2018-05-29T05:43:29.803Z,21.40
2018-05-29T05:45:57.254Z,21.40
2018-05-29T05:48:24.762Z,21.50
2018-05-29T05:50:52.226Z,21.50
2018-05-29T05:53:19.673Z,21.50
2018-05-29T05:55:47.146Z,21.50
2018-05-29T05:58:14.658Z,21.60
2018-05-29T06:00:42.902Z,21.60
2018-05-29T06:03:10.442Z,21.60
2018-05-29T06:05:37.890Z,21.70
2018-05-29T06:08:05.378Z,21.70
2018-05-29T06:10:32.930Z,21.70
2018-05-29T06:13:00.382Z,21.80
2018-05-29T06:15:27.834Z,21.80
2018-05-29T06:17:55.340Z,21.90
2018-05-29T06:20:22.782Z,21.90
2018-05-29T06:22:50.242Z,22.00
2018-05-29T06:25:17.702Z,22.00
2018-05-29T06:27:45.149Z,22.10
2018-05-29T06:30:12.632Z,22.10
2018-05-29T06:32:40.690Z,22.20
2018-05-29T06:35:08.142Z,22.20
2018-05-29T06:37:35.727Z,22.30
2018-05-29T06:40:03.182Z,22.30
2018-05-29T06:42:30.642Z,22.30
2018-05-29T06:44:58.126Z,22.40
2018-05-29T06:47:25.570Z,22.40
2018-05-29T06:49:53.055Z,22.50
2018-05-29T06:52:20.509Z,22.50
2018-05-29T06:54:47.949Z,22.60
2018-05-29T06:57:15.409Z,22.70
2018-05-29T06:59:42.841Z,22.70
2018-05-29T07:02:10.301Z,22.80
2018-05-29T07:04:37.866Z,22.80
2018-05-29T07:07:05.350Z,22.90
2018-05-29T07:09:33.518Z,23.00
2018-05-29T07:12:01.001Z,23.00
2018-05-29T07:14:28.486Z,23.10
2018-05-29T07:16:55.938Z,23.10
2018-05-29T07:19:23.392Z,23.20
2018-05-29T07:21:50.842Z,23.30
2018-05-29T07:24:18.306Z,23.40
2018-05-29T07:26:45.762Z,23.40
2018-05-29T07:29:13.275Z,23.40
2018-05-29T07:31:41.518Z,23.50
2018-05-29T07:34:08.973Z,23.50
2018-05-29T07:36:36.526Z,23.60
2018-05-29T07:39:04.129Z,23.60
2018-05-29T07:41:31.661Z,23.70
2018-05-29T07:43:59.125Z,23.80
2018-05-29T07:46:26.569Z,23.90
2018-05-29T07:48:54.011Z,24.00
2018-05-29T07:51:21.470Z,24.10
2018-05-29T07:53:49.687Z,24.30
2018-05-29T07:56:17.334Z,24.20
2018-05-29T07:58:44.800Z,24.40
2018-05-29T08:01:12.238Z,24.60
2018-05-29T08:03:39.681Z,24.70
2018-05-29T08:06:07.893Z,24.90
2018-05-29T08:08:35.334Z,24.90
2018-05-29T08:11:03.554Z,25.30
2018-05-29T08:13:31.006Z,25.20
2018-05-29T08:15:58.494Z,25.40
2018-05-29T08:18:25.942Z,25.50
2018-05-29T08:20:53.421Z,25.70
2018-05-29T08:23:20.879Z,25.80
2018-05-29T08:25:48.403Z,25.90
2018-05-29T08:28:15.838Z,26.00
2018-05-29T08:30:44.042Z,26.30
2018-05-29T08:33:11.761Z,26.30
2018-05-29T08:35:39.448Z,26.30
2018-05-29T08:38:07.179Z,26.50
2018-05-29T08:40:34.606Z,26.60
2018-05-29T08:43:02.067Z,26.70
2018-05-29T08:45:29.510Z,26.80
2018-05-29T08:47:56.967Z,26.80
2018-05-29T08:50:25.269Z,27.00
2018-05-29T08:52:52.711Z,27.00
2018-05-29T08:55:20.930Z,27.20
2018-05-29T08:57:48.377Z,27.20
2018-05-29T09:00:15.820Z,27.30
2018-05-29T09:02:43.262Z,27.30
2018-05-29T09:05:11.494Z,27.30
2018-05-29T09:07:38.941Z,27.30
2018-05-29T09:10:06.399Z,27.40
2018-05-29T09:12:33.879Z,27.50
2018-05-29T09:15:01.322Z,27.60
2018-05-29T09:17:28.809Z,27.70
2018-05-29T09:19:56.262Z,27.90
2018-05-29T09:22:23.699Z,28.00
2018-05-29T09:24:51.142Z,28.10
2018-05-29T09:27:19.444Z,28.10
2018-05-29T09:29:46.953Z,28.10
2018-05-29T09:32:15.097Z,28.20
2018-05-29T09:34:42.565Z,28.20
2018-05-29T09:37:10.044Z,28.30
2018-05-29T09:39:37.546Z,28.40
2018-05-29T09:42:05.770Z,28.60
2018-05-29T09:44:33.215Z,28.60
2018-05-29T09:47:00.662Z,28.70
2018-05-29T09:49:28.115Z,28.70
2018-05-29T09:51:55.622Z,28.80
2018-05-29T09:54:23.063Z,28.80
2018-05-29T09:56:50.516Z,29.00
2018-05-29T09:59:17.957Z,29.00
2018-05-29T10:01:45.399Z,29.00
2018-05-29T10:04:12.945Z,28.70
2018-05-29T10:06:40.451Z,28.30
2018-05-29T10:09:07.955Z,28.00
2018-05-29T10:11:35.410Z,27.60
2018-05-29T10:14:02.858Z,27.10
2018-05-29T10:16:30.412Z,27.20
2018-05-29T10:18:57.854Z,27.40
2018-05-29T10:21:26.078Z,27.90
2018-05-29T10:23:53.522Z,27.90
2018-05-29T10:26:20.974Z,28.10
2018-05-29T10:28:48.425Z,28.20
2018-05-29T10:31:15.862Z,28.30
2018-05-29T10:33:44.086Z,28.80
2018-05-29T10:36:11.511Z,28.80
2018-05-29T10:38:39.742Z,29.10
2018-05-29T10:41:07.207Z,29.10
2018-05-29T10:43:34.671Z,29.20
2018-05-29T10:46:02.134Z,29.40
2018-05-29T10:48:29.563Z,29.70
2018-05-29T10:50:57.066Z,29.80
2018-05-29T10:53:24.688Z,29.70
2018-05-29T10:55:52.122Z,29.50
2018-05-29T10:58:20.358Z,29.80
2018-05-29T11:00:47.798Z,29.80
2018-05-29T11:03:15.282Z,29.80
2018-05-29T11:05:42.727Z,30.00
2018-05-29T11:08:10.187Z,30.10
2018-05-29T11:10:37.627Z,30.40
2018-05-29T11:13:05.078Z,30.50
2018-05-29T11:15:33.281Z,30.50
2018-05-29T11:18:00.735Z,30.50
2018-05-29T11:20:28.226Z,30.60
2018-05-29T11:22:55.680Z,30.60
2018-05-29T11:25:23.142Z,30.60
2018-05-29T11:27:50.709Z,30.80
2018-05-29T11:30:18.149Z,30.90
2018-05-29T11:32:45.633Z,31.00
2018-05-29T11:35:13.097Z,31.00
2018-05-29T11:37:40.558Z,31.00
2018-05-29T11:40:08.011Z,31.00
2018-05-29T11:42:36.099Z,31.00
2018-05-29T11:45:03.586Z,31.20
2018-05-29T11:47:31.026Z,31.20
2018-05-29T11:49:58.485Z,31.20
2018-05-29T11:52:25.930Z,31.20
2018-05-29T11:54:53.415Z,31.40
2018-05-29T11:57:20.848Z,31.50
2018-05-29T11:59:48.301Z,31.50
2018-05-29T12:02:15.804Z,31.50
2018-05-29T12:04:43.242Z,31.60
2018-05-29T12:07:10.682Z,31.60
2018-05-29T12:09:38.138Z,31.70
2018-05-29T12:12:17.430Z,31.60
2018-05-29T12:14:44.878Z,31.50
2018-05-29T12:17:12.331Z,31.50
2018-05-29T12:19:39.819Z,31.50
2018-05-29T12:22:07.351Z,31.60
2018-05-29T12:24:34.806Z,31.80
2018-05-29T12:27:02.307Z,31.90
2018-05-29T12:29:30.530Z,32.10
2018-05-29T12:31:58.711Z,32.10
2018-05-29T12:34:26.216Z,32.30
2018-05-29T12:36:53.671Z,32.40
2018-05-29T12:39:21.110Z,32.40
2018-05-29T12:41:48.574Z,32.30
2018-05-29T12:44:16.046Z,32.20
2018-05-29T12:46:43.600Z,32.30
2018-05-29T12:49:11.045Z,32.40
2018-05-29T12:51:38.486Z,32.40
2018-05-29T12:54:05.986Z,32.20
2018-05-29T12:56:33.436Z,32.40
2018-05-29T12:59:00.894Z,32.60
2018-05-29T13:01:28.365Z,32.70
2018-05-29T13:03:55.835Z,32.90
2018-05-29T13:06:23.302Z,32.90
2018-05-29T13:08:50.830Z,32.80
2018-05-29T13:11:18.298Z,32.90
2018-05-29T13:13:46.574Z,32.70
2018-05-29T13:16:14.035Z,32.70
2018-05-29T13:18:46.146Z,32.50
2018-05-29T13:21:13.729Z,32.50
2018-05-29T13:23:41.242Z,32.30
2018-05-29T13:26:08.690Z,32.10
2018-05-29T13:28:36.187Z,31.90
2018-05-29T13:31:03.638Z,31.70
2018-05-29T13:33:31.077Z,31.60
2018-05-29T13:35:58.530Z,31.40
2018-05-29T13:38:25.970Z,31.30
2018-05-29T13:40:54.186Z,31.00
2018-05-29T13:43:21.625Z,30.90
2018-05-29T13:45:49.080Z,30.90
2018-05-29T13:48:16.527Z,30.70
2018-05-29T13:50:44.736Z,30.40
2018-05-29T13:53:13.102Z,30.40
2018-05-29T13:55:40.550Z,30.20
2018-05-29T13:58:09.799Z,30.00
2018-05-29T14:00:37.266Z,30.00
2018-05-29T14:03:04.807Z,29.80
2018-05-29T14:05:32.234Z,29.70
2018-05-29T14:08:00.458Z,29.40
2018-05-29T14:10:27.935Z,29.40
2018-05-29T14:12:55.422Z,29.10
2018-05-29T14:15:22.958Z,28.90
2018-05-29T14:17:50.427Z,28.70
2018-05-29T14:20:17.882Z,28.50
2018-05-29T14:22:45.346Z,28.30
2018-05-29T14:25:12.804Z,28.20
2018-05-29T14:27:40.266Z,28.10
2018-05-29T14:30:07.715Z,28.00
2018-05-29T14:32:35.162Z,27.90
2018-05-29T14:35:02.607Z,27.90
2018-05-29T14:37:30.857Z,27.70
2018-05-29T14:39:58.322Z,27.70
2018-05-29T14:42:25.827Z,27.60
2018-05-29T14:44:54.209Z,27.40
2018-05-29T14:47:21.655Z,27.40
2018-05-29T14:49:49.099Z,27.40
2018-05-29T14:52:16.570Z,27.30
2018-05-29T14:54:44.782Z,26.80
2018-05-29T14:57:12.235Z,26.80
2018-05-29T14:59:39.722Z,26.70
2018-05-29T15:02:07.183Z,26.60
2018-05-29T15:04:34.647Z,26.50
2018-05-29T15:07:02.099Z,26.40
2018-05-29T15:09:29.542Z,26.30
2018-05-29T15:11:56.994Z,26.30
2018-05-29T15:14:24.445Z,26.20
2018-05-29T15:16:52.666Z,26.00
2018-05-29T15:19:20.163Z,26.00
2018-05-29T15:21:47.699Z,25.90
2018-05-29T15:24:15.151Z,25.80
2018-05-29T15:26:42.630Z,25.80
2018-05-29T15:29:10.090Z,25.80
2018-05-29T15:31:37.534Z,25.70
2018-05-29T15:34:05.023Z,25.70
2018-05-29T15:36:32.574Z,25.60
2018-05-29T15:39:00.104Z,25.60
2018-05-29T15:41:27.590Z,25.60
2018-05-29T15:43:55.047Z,25.40
2018-05-29T15:46:22.494Z,25.30
2018-05-29T15:48:49.943Z,25.20
2018-05-29T15:51:17.383Z,25.20
2018-05-29T15:53:45.626Z,24.90
2018-05-29T15:56:13.079Z,24.80
2018-05-29T15:58:40.534Z,24.60
2018-05-29T16:01:07.978Z,24.60
2018-05-29T16:03:35.442Z,24.30
2018-05-29T16:06:02.930Z,24.00
2018-05-29T16:08:30.366Z,23.90
2018-05-29T16:10:57.811Z,23.80
2018-05-29T16:13:25.262Z,23.70
2018-05-29T16:15:53.561Z,23.50
2018-05-29T16:18:21.050Z,23.50
2018-05-29T16:20:48.486Z,23.50
2018-05-29T16:23:16.051Z,23.40
2018-05-29T16:25:43.474Z,23.20
2018-05-29T16:28:11.694Z,22.90
2018-05-29T16:30:39.161Z,22.90
2018-05-29T16:33:06.647Z,23.00
2018-05-29T16:35:34.102Z,22.90
2018-05-29T16:38:01.557Z,22.50
2018-05-29T16:40:29.047Z,22.30
2018-05-29T16:42:56.561Z,22.30
2018-05-29T16:45:23.986Z,22.40
2018-05-29T16:47:52.208Z,22.30
2018-05-29T16:50:19.658Z,22.30
2018-05-29T16:52:47.150Z,22.20
2018-05-29T16:55:14.609Z,22.20
2018-05-29T16:57:42.050Z,22.10
2018-05-29T17:00:09.556Z,22.10
2018-05-29T17:02:36.989Z,22.00
2018-05-29T17:05:04.438Z,22.10
2018-05-29T17:07:31.886Z,22.00
2018-05-29T17:09:59.378Z,21.90
2018-05-29T17:12:26.842Z,21.90
2018-05-29T17:14:54.302Z,21.90
2018-05-29T17:17:21.774Z,21.90
2018-05-29T17:19:49.222Z,21.70
2018-05-29T17:22:16.666Z,21.70
2018-05-29T17:24:44.118Z,21.70
2018-05-29T17:27:11.582Z,21.80
2018-05-29T17:29:39.041Z,21.90
2018-05-29T17:32:06.486Z,22.00
2018-05-29T17:34:34.696Z,22.00
2018-05-29T17:37:02.248Z,22.00
2018-05-29T17:39:29.745Z,22.00
2018-05-29T17:41:57.199Z,22.00
2018-05-29T17:44:24.659Z,22.00
2018-05-29T17:46:52.102Z,21.90
2018-05-29T17:49:19.563Z,21.90
2018-05-29T17:51:47.062Z,21.90
2018-05-29T17:54:14.514Z,21.90
2018-05-29T17:56:41.959Z,21.90
2018-05-29T17:59:09.411Z,21.90
2018-05-29T18:01:36.858Z,21.90
2018-05-29T18:04:04.335Z,21.80
2018-05-29T18:06:31.779Z,21.80
2018-05-29T18:09:00.005Z,21.90
2018-05-29T18:11:27.450Z,21.80
2018-05-29T18:13:54.964Z,21.90
2018-05-29T18:16:22.992Z,21.80
2018-05-29T18:18:50.512Z,21.70
2018-05-29T18:21:17.955Z,21.80
2018-05-29T18:23:46.165Z,21.80
2018-05-29T18:26:13.654Z,21.80
2018-05-29T18:28:41.189Z,21.80
2018-05-29T18:31:08.681Z,21.60
2018-05-29T18:33:36.138Z,21.60
2018-05-29T18:36:03.629Z,21.60
2018-05-29T18:38:31.111Z,21.50
2018-05-29T18:40:58.518Z,21.50
2018-05-29T18:43:25.963Z,21.50
2018-05-29T18:45:53.445Z,21.50
2018-05-29T18:48:20.982Z,21.60
2018-05-29T18:50:52.396Z,21.40
2018-05-29T18:53:20.398Z,21.40
2018-05-29T18:55:48.133Z,21.40
2018-05-29T18:58:15.832Z,21.30
2018-05-29T19:00:44.359Z,21.50
2018-05-29T19:03:12.075Z,21.50
2018-05-29T19:05:40.841Z,21.50
2018-05-29T19:08:09.239Z,21.50
2018-05-29T19:10:36.830Z,21.50
2018-05-29T19:13:04.373Z,21.50
2018-05-29T19:15:33.123Z,21.50
2018-05-29T19:18:01.457Z,21.50
2018-05-29T19:20:28.918Z,21.50
2018-05-29T19:22:57.544Z,21.20
2018-05-29T19:25:24.989Z,21.20
2018-05-29T19:27:52.414Z,21.20
2018-05-29T19:30:20.640Z,21.20
2018-05-29T19:32:48.075Z,21.10
2018-05-29T19:35:15.545Z,21.20
2018-05-29T19:37:42.970Z,21.30
2018-05-29T19:40:11.187Z,21.40
2018-05-29T19:42:38.627Z,21.30
